Time;durP1;ratioP1;P1;durP2;ratioP2;P2;SDS_P1;SDS_P2;PMS_P1;PMS_P2;Temp;Humidity;BMP_temperature;BMP_pressure;BME280_temperature;BME280_humidity;BME280_pressure;Samples;Min_cycle;Max_cycle;Signal;HPM_P1;HPM_P2
2020/12/21 00:02:16;;;;;;;18.88;12.13;;;8.30;99.90;;;;;;5034917;28;20299;-73
2020/12/21 00:04:42;;;;;;;18.63;11.45;;;8.30;99.90;;;;;;5034563;28;20319;-72
2020/12/21 00:07:09;;;;;;;17.08;10.27;;;8.30;99.90;;;;;;5034230;28;20227;-73
2020/12/21 00:09:36;;;;;;;12.48;8.52;;;8.30;99.90;;;;;;5034986;28;20306;-73
2020/12/21 00:12:02;;;;;;;19.88;12.70;;;8.40;99.90;;;;;;5034790;28;20219;-73
2020/12/21 00:14:28;;;;;;;17.73;12.02;;;8.50;99.90;;;;;;5035070;28;20254;-73
2020/12/21 00:16:55;;;;;;;16.25;11.63;;;8.60;99.90;;;;;;5035012;28;20287;-73
2020/12/21 00:19:24;;;;;;;18.80;12.02;;;8.50;99.90;;;;;;5034885;28;20211;-73
2020/12/21 00:21:52;;;;;;;18.08;12.13;;;8.40;99.90;;;;;;5034608;28;20204;-73
2020/12/21 00:24:20;;;;;;;23.13;12.55;;;8.30;99.90;;;;;;5034382;28;20262;-72
2020/12/21 00:26:48;;;;;;;17.63;10.18;;;8.20;99.90;;;;;;5034219;28;20223;-73
2020/12/21 00:29:15;;;;;;;19.60;10.65;;;8.20;99.90;;;;;;5034808;28;20230;-73
2020/12/21 00:31:42;;;;;;;17.58;10.38;;;8.20;99.90;;;;;;5034291;28;20212;-73
2020/12/21 00:34:09;;;;;;;17.00;11.85;;;8.30;99.90;;;;;;5034281;28;20224;-73
2020/12/21 00:36:37;;;;;;;21.15;11.85;;;8.30;99.90;;;;;;5034448;28;20206;-73
2020/12/21 00:39:05;;;;;;;17.10;12.07;;;8.40;99.90;;;;;;5034415;28;20210;-72
2020/12/21 00:41:32;;;;;;;19.52;11.40;;;8.60;99.90;;;;;;5034043;28;20210;-72
2020/12/21 00:43:58;;;;;;;20.10;11.07;;;8.60;99.90;;;;;;5034285;28;20310;-73
2020/12/21 00:46:28;;;;;;;15.75;10.32;;;8.60;99.90;;;;;;5033702;28;20693;-72
2020/12/21 00:48:56;;;;;;;19.02;11.85;;;8.50;99.90;;;;;;5034005;28;20290;-72
2020/12/21 00:51:22;;;;;;;18.08;11.13;;;8.40;99.90;;;;;;5033922;28;20218;-72
2020/12/21 00:53:50;;;;;;;17.30;11.25;;;8.30;99.90;;;;;;5033673;28;20688;-72
2020/12/21 00:56:18;;;;;;;18.58;11.23;;;8.20;99.90;;;;;;5033922;28;20211;-72
2020/12/21 00:58:45;;;;;;;18.50;11.20;;;8.10;99.90;;;;;;5033757;28;20569;-73
2020/12/21 01:01:13;;;;;;;21.65;12.30;;;7.90;99.90;;;;;;5034010;28;20200;-73
2020/12/21 01:03:40;;;;;;;19.63;11.77;;;7.80;99.90;;;;;;5033843;28;20206;-72
2020/12/21 01:06:06;;;;;;;17.50;10.73;;;7.80;99.90;;;;;;5033750;28;20201;-72
2020/12/21 01:08:33;;;;;;;20.42;12.27;;;7.80;99.90;;;;;;5033528;28;20235;-73
2020/12/21 01:11:00;;;;;;;18.42;10.00;;;7.80;99.90;;;;;;5033846;28;20540;-73
2020/12/21 01:13:27;;;;;;;16.20;10.00;;;8.00;99.90;;;;;;5033797;28;20356;-73
2020/12/21 01:15:53;;;;;;;18.55;10.77;;;8.20;99.90;;;;;;5033407;28;20724;-73
2020/12/21 01:18:19;;;;;;;13.95;9.00;;;8.30;99.90;;;;;;5033719;28;20198;-72
2020/12/21 01:20:46;;;;;;;13.10;7.68;;;8.30;99.90;;;;;;5033675;28;20208;-72
2020/12/21 01:23:12;;;;;;;12.68;7.30;;;8.30;99.90;;;;;;5033706;28;20204;-73
2020/12/21 01:25:38;;;;;;;14.43;8.65;;;8.30;99.90;;;;;;5033412;28;20307;-73
2020/12/21 01:28:06;;;;;;;13.07;6.68;;;8.20;99.90;;;;;;5033539;28;20793;-73
2020/12/21 01:30:32;;;;;;;10.70;6.95;;;8.40;99.90;;;;;;5033625;28;20306;-73
2020/12/21 01:32:58;;;;;;;10.70;6.60;;;8.50;99.90;;;;;;5033873;28;20652;-73
2020/12/21 01:35:25;;;;;;;6.05;4.50;;;8.60;99.90;;;;;;5033273;28;20231;-73
2020/12/21 01:37:51;;;;;;;11.38;5.15;;;8.60;99.90;;;;;;5033493;28;20295;-73
2020/12/21 01:40:17;;;;;;;8.25;5.47;;;8.60;99.90;;;;;;5033378;28;20291;-73
2020/12/21 01:42:43;;;;;;;6.30;4.97;;;8.60;99.90;;;;;;5033481;28;20350;-72
2020/12/21 01:45:11;;;;;;;6.15;4.40;;;8.60;99.90;;;;;;5033534;28;20662;-73
2020/12/21 01:47:38;;;;;;;7.28;5.30;;;8.60;99.90;;;;;;5033613;28;20273;-73
2020/12/21 01:50:05;;;;;;;7.18;4.55;;;8.60;99.90;;;;;;5033245;28;20611;-73
2020/12/21 01:52:31;;;;;;;10.35;6.07;;;8.50;99.90;;;;;;5033276;28;20204;-73
2020/12/21 01:54:58;;;;;;;16.55;10.43;;;8.40;99.90;;;;;;5032868;28;20251;-73
2020/12/21 01:57:24;;;;;;;16.80;10.70;;;8.40;99.90;;;;;;5033188;28;20196;-72
2020/12/21 01:59:51;;;;;;;16.88;10.65;;;8.40;99.90;;;;;;5033346;28;20294;-73
2020/12/21 02:02:18;;;;;;;20.55;10.85;;;8.40;99.90;;;;;;5033285;28;20295;-73
2020/12/21 02:04:45;;;;;;;22.80;12.48;;;8.40;99.90;;;;;;5033430;28;20234;-72
2020/12/21 02:07:13;;;;;;;15.75;9.75;;;8.30;99.90;;;;;;5033189;28;20698;-72
2020/12/21 02:09:40;;;;;;;15.38;10.80;;;8.10;99.90;;;;;;5033195;28;20564;-72
2020/12/21 02:12:06;;;;;;;21.58;10.48;;;8.00;99.90;;;;;;5033254;28;20623;-72
2020/12/21 02:14:33;;;;;;;16.58;11.05;;;8.10;99.90;;;;;;5032737;28;20266;-72
2020/12/21 02:16:59;;;;;;;19.10;11.07;;;8.00;99.90;;;;;;5033140;28;20287;-73
2020/12/21 02:19:27;;;;;;;13.35;9.68;;;8.10;99.90;;;;;;5033291;28;20615;-72
2020/12/21 02:21:54;;;;;;;15.52;8.85;;;8.10;99.90;;;;;;5033215;28;20204;-73
2020/12/21 02:24:20;;;;;;;15.82;9.35;;;8.10;99.90;;;;;;5032994;28;20315;-72
2020/12/21 02:26:47;;;;;;;19.85;8.95;;;8.10;99.90;;;;;;5032793;28;20302;-73
2020/12/21 02:29:13;;;;;;;14.32;8.50;;;8.10;99.90;;;;;;5033301;28;20741;-73
2020/12/21 02:31:39;;;;;;;15.35;9.60;;;8.10;99.90;;;;;;5036406;28;20245;-73
2020/12/21 02:34:05;;;;;;;13.70;8.35;;;7.90;99.90;;;;;;5036559;28;20234;-72
2020/12/21 02:36:32;;;;;;;16.02;9.20;;;7.80;99.90;;;;;;5036430;28;20299;-72
2020/12/21 02:38:59;;;;;;;19.80;8.75;;;7.60;99.90;;;;;;5036639;28;20299;-72
2020/12/21 02:41:25;;;;;;;12.48;7.43;;;7.60;99.90;;;;;;5036861;28;20208;-73
2020/12/21 02:43:52;;;;;;;11.77;6.38;;;7.60;99.90;;;;;;5036619;28;20758;-72
2020/12/21 02:46:18;;;;;;;10.45;7.45;;;7.70;99.90;;;;;;5036314;28;20294;-73
2020/12/21 02:48:47;;;;;;;8.85;6.00;;;7.80;99.90;;;;;;5036364;28;20582;-72
2020/12/21 02:51:15;;;;;;;14.77;7.00;;;7.70;99.90;;;;;;5036248;28;20204;-72
2020/12/21 02:53:42;;;;;;;9.25;6.72;;;7.80;99.90;;;;;;5036431;28;20208;-73
2020/12/21 02:56:09;;;;;;;11.27;6.60;;;7.80;99.90;;;;;;5036716;28;20295;-73
2020/12/21 02:58:35;;;;;;;7.95;5.72;;;7.90;99.90;;;;;;5036515;28;20218;-73
2020/12/21 03:01:01;;;;;;;9.52;5.63;;;7.90;99.90;;;;;;5036253;28;20291;-73
2020/12/21 03:03:28;;;;;;;8.10;5.70;;;7.90;99.90;;;;;;5036232;28;20283;-73
2020/12/21 03:05:54;;;;;;;8.05;5.68;;;8.00;99.90;;;;;;5035702;28;20231;-72
2020/12/21 03:08:20;;;;;;;9.25;5.40;;;8.00;99.90;;;;;;5036060;28;20224;-73
2020/12/21 03:10:47;;;;;;;6.75;4.43;;;8.00;99.90;;;;;;5035926;28;20251;-73
2020/12/21 03:13:14;;;;;;;7.25;4.55;;;8.00;99.90;;;;;;5036074;28;20206;-73
2020/12/21 03:15:40;;;;;;;8.65;5.53;;;8.00;99.90;;;;;;5035789;28;20315;-72
2020/12/21 03:18:07;;;;;;;7.10;4.72;;;8.00;99.90;;;;;;5036213;28;20196;-73
2020/12/21 03:20:33;;;;;;;6.20;4.15;;;8.10;99.90;;;;;;5035742;28;20291;-73
2020/12/21 03:22:59;;;;;;;6.45;4.20;;;8.00;99.90;;;;;;5035750;28;20299;-72
2020/12/21 03:25:26;;;;;;;5.80;4.80;;;8.10;99.90;;;;;;5035557;28;20314;-72
2020/12/21 03:27:52;;;;;;;6.63;4.45;;;7.90;99.90;;;;;;5035425;28;20224;-72
2020/12/21 03:30:19;;;;;;;6.75;5.25;;;7.60;99.90;;;;;;5035229;28;20208;-73
2020/12/21 03:32:46;;;;;;;6.15;4.07;;;7.40;99.90;;;;;;5035626;28;20210;-73
2020/12/21 03:35:12;;;;;;;6.63;4.40;;;7.20;99.90;;;;;;5035374;28;20322;-72
2020/12/21 03:37:38;;;;;;;14.68;5.43;;;7.00;99.90;;;;;;5035393;28;20659;-72
2020/12/21 03:40:07;;;;;;;10.95;6.43;;;7.00;99.90;;;;;;5035388;28;20295;-73
2020/12/21 03:42:33;;;;;;;12.98;6.00;;;7.10;99.90;;;;;;5034284;28;20208;-73
2020/12/21 03:45:00;;;;;;;10.95;8.05;;;7.10;99.90;;;;;;5035029;28;20728;-73
2020/12/21 03:47:27;;;;;;;11.00;7.50;;;7.20;99.90;;;;;;5035272;28;20234;-72
2020/12/21 03:49:53;;;;;;;14.82;7.47;;;7.30;99.90;;;;;;5035291;28;20295;-72
2020/12/21 03:52:20;;;;;;;15.15;9.52;;;7.30;99.90;;;;;;5035151;28;20292;-72
2020/12/21 03:54:46;;;;;;;15.45;8.60;;;7.40;99.90;;;;;;5034587;28;20314;-72
2020/12/21 03:57:12;;;;;;;13.40;8.52;;;7.40;99.90;;;;;;5034802;28;20201;-72
2020/12/21 03:59:39;;;;;;;13.00;8.15;;;7.50;99.90;;;;;;5034809;28;20296;-72
2020/12/21 04:02:05;;;;;;;12.90;6.88;;;7.50;99.90;;;;;;5035009;28;20299;-72
2020/12/21 04:04:32;;;;;;;11.80;7.18;;;7.60;99.90;;;;;;5034953;28;20319;-72
2020/12/21 04:06:58;;;;;;;8.75;6.50;;;7.50;99.90;;;;;;5035008;28;20724;-73
2020/12/21 04:09:25;;;;;;;11.50;6.72;;;7.30;99.90;;;;;;5034836;28;20298;-73
2020/12/21 04:11:51;;;;;;;10.30;5.43;;;7.00;99.90;;;;;;5034682;28;20300;-73
2020/12/21 04:14:17;;;;;;;9.55;6.22;;;6.80;99.90;;;;;;5034893;28;20262;-72
2020/12/21 04:16:44;;;;;;;9.85;6.30;;;6.90;99.90;;;;;;5034415;28;20204;-72
2020/12/21 04:19:10;;;;;;;10.05;6.28;;;6.90;99.90;;;;;;5034757;28;20219;-72
2020/12/21 04:21:37;;;;;;;9.75;5.90;;;7.00;99.90;;;;;;5034557;28;20204;-72
2020/12/21 04:24:03;;;;;;;9.50;5.63;;;7.00;99.90;;;;;;5034611;28;20314;-72
2020/12/21 04:26:30;;;;;;;9.13;6.15;;;7.10;99.90;;;;;;5034564;28;20208;-72
2020/12/21 04:28:56;;;;;;;9.05;5.50;;;7.00;99.90;;;;;;5034587;28;20773;-73
2020/12/21 04:31:22;;;;;;;8.30;4.78;;;7.10;99.90;;;;;;5034175;28;20303;-72
2020/12/21 04:33:49;;;;;;;6.70;4.95;;;7.10;99.90;;;;;;5034500;28;20290;-72
2020/12/21 04:36:15;;;;;;;9.98;5.35;;;6.80;99.90;;;;;;5034249;28;20261;-72
2020/12/21 04:38:43;;;;;;;10.45;6.07;;;6.80;99.90;;;;;;5034297;28;20291;-72
2020/12/21 04:41:11;;;;;;;8.13;4.53;;;6.60;99.90;;;;;;5034115;28;20208;-72
2020/12/21 04:43:38;;;;;;;10.43;4.45;;;6.40;99.90;;;;;;5034106;28;20269;-72
2020/12/21 04:46:07;;;;;;;9.70;5.38;;;6.60;99.90;;;;;;5034342;28;20236;-72
2020/12/21 04:48:38;;;;;;;8.60;4.75;;;6.70;99.90;;;;;;5034027;28;20254;-73
2020/12/21 04:51:05;;;;;;;7.85;5.05;;;6.80;99.90;;;;;;5033758;28;20208;-72
2020/12/21 04:53:31;;;;;;;8.38;4.88;;;7.00;99.90;;;;;;5033798;28;20287;-72
2020/12/21 04:56:00;;;;;;;7.07;4.28;;;7.10;99.90;;;;;;5033893;28;20257;-72
2020/12/21 04:58:26;;;;;;;7.72;4.13;;;7.20;99.90;;;;;;5033916;28;20207;-72
2020/12/21 05:00:52;;;;;;;7.90;4.90;;;7.20;99.90;;;;;;5033943;28;20269;-72
2020/12/21 05:03:19;;;;;;;7.28;4.45;;;7.20;99.90;;;;;;5033898;28;20611;-72
2020/12/21 05:05:45;;;;;;;9.27;5.00;;;7.00;99.90;;;;;;5033361;28;20792;-72
2020/12/21 05:08:14;;;;;;;7.40;4.75;;;6.80;99.90;;;;;;5033528;28;20238;-72
2020/12/21 05:10:42;;;;;;;5.95;4.43;;;6.80;99.90;;;;;;5033612;28;20200;-72
2020/12/21 05:13:10;;;;;;;7.80;5.03;;;6.90;99.90;;;;;;5033753;28;20570;-72
2020/12/21 05:15:37;;;;;;;7.13;4.15;;;7.00;99.90;;;;;;5033573;28;20228;-72
2020/12/21 05:18:08;;;;;;;5.90;3.47;;;7.10;99.90;;;;;;5033432;28;20226;-72
2020/12/21 05:20:36;;;;;;;5.95;4.43;;;6.90;99.90;;;;;;5033684;28;20563;-72
2020/12/21 05:23:03;;;;;;;7.57;4.47;;;6.80;99.90;;;;;;5033471;28;20219;-72
2020/12/21 05:25:30;;;;;;;5.82;3.35;;;6.60;99.90;;;;;;5033518;28;20224;-72
2020/12/21 05:28:09;;;;;;;4.88;3.80;;;6.50;99.90;;;;;;5033447;28;20350;-72
2020/12/21 05:30:36;;;;;;;6.53;3.28;;;6.50;99.90;;;;;;5033427;28;20590;-73
2020/12/21 05:33:03;;;;;;;6.65;5.05;;;6.70;99.90;;;;;;5033594;28;20204;-72
2020/12/21 05:35:31;;;;;;;7.35;4.13;;;6.80;99.90;;;;;;5033143;28;20310;-72
2020/12/21 05:37:57;;;;;;;5.72;4.07;;;6.80;99.90;;;;;;5033609;28;20200;-72
2020/12/21 05:40:26;;;;;;;8.35;4.82;;;6.90;99.90;;;;;;5033571;28;20307;-72
2020/12/21 05:42:53;;;;;;;9.93;5.30;;;6.90;99.90;;;;;;5033631;28;20279;-72
2020/12/21 05:45:21;;;;;;;8.70;6.18;;;7.00;99.90;;;;;;5033184;28;20220;-72
2020/12/21 05:47:49;;;;;;;12.27;6.43;;;6.90;99.90;;;;;;5033454;28;20228;-73
2020/12/21 05:50:21;;;;;;;13.77;7.70;;;6.80;99.90;;;;;;5033765;28;20206;-73
2020/12/21 05:52:54;;;;;;;9.93;6.25;;;6.80;99.90;;;;;;5033359;28;20211;-73
2020/12/21 05:55:21;;;;;;;11.63;7.35;;;6.80;99.90;;;;;;5033292;28;20311;-72
2020/12/21 05:57:49;;;;;;;11.02;6.78;;;6.80;99.90;;;;;;5033361;28;20196;-73
2020/12/21 06:00:16;;;;;;;8.40;6.90;;;7.00;99.90;;;;;;5033386;28;20208;-73
2020/12/21 06:02:43;;;;;;;11.70;7.30;;;7.10;99.90;;;;;;5033352;28;20204;-73
2020/12/21 06:05:11;;;;;;;10.95;7.35;;;7.10;99.90;;;;;;5034962;28;20314;-73
2020/12/21 06:07:39;;;;;;;12.43;7.40;;;7.30;99.90;;;;;;5037368;28;20756;-73
2020/12/21 06:10:06;;;;;;;13.35;6.80;;;7.40;99.90;;;;;;5037142;28;20215;-73
2020/12/21 06:12:42;;;;;;;14.10;7.85;;;7.50;99.90;;;;;;5036925;28;20210;-72
2020/12/21 06:15:12;;;;;;;11.60;8.80;;;7.60;99.90;;;;;;5036985;28;20269;-72
2020/12/21 06:17:38;;;;;;;15.80;9.45;;;7.60;99.90;;;;;;5037061;28;20203;-73
2020/12/21 06:20:07;;;;;;;11.63;7.80;;;7.60;99.90;;;;;;5037171;28;20204;-72
2020/12/21 06:22:33;;;;;;;12.07;7.40;;;7.30;99.90;;;;;;5037128;28;20208;-73
2020/12/21 06:25:00;;;;;;;15.18;8.57;;;7.20;99.90;;;;;;5036633;28;20231;-73
2020/12/21 06:27:38;;;;;;;11.13;7.40;;;7.10;99.90;;;;;;5036916;28;20236;-72
2020/12/21 06:30:05;;;;;;;11.10;7.28;;;6.90;99.90;;;;;;5036837;28;20544;-73
2020/12/21 06:32:33;;;;;;;10.80;6.78;;;6.70;99.90;;;;;;5037038;28;20235;-72
2020/12/21 06:35:00;;;;;;;11.65;5.88;;;6.70;99.90;;;;;;5036445;28;20617;-72
2020/12/21 06:37:27;;;;;;;6.75;5.03;;;6.80;99.90;;;;;;5036734;28;20662;-73
2020/12/21 06:40:01;;;;;;;8.45;4.93;;;6.90;99.90;;;;;;5036959;28;20207;-73
2020/12/21 06:42:28;;;;;;;9.23;5.30;;;7.00;99.90;;;;;;5036434;28;20668;-72
2020/12/21 06:44:55;;;;;;;9.27;4.55;;;7.10;99.90;;;;;;5036470;28;20228;-73
2020/12/21 06:47:22;;;;;;;8.23;4.78;;;7.00;99.90;;;;;;5036542;28;20323;-73
2020/12/21 06:49:49;;;;;;;7.53;4.50;;;7.00;99.90;;;;;;5036458;28;20266;-72
2020/12/21 06:52:16;;;;;;;6.07;4.10;;;6.80;99.90;;;;;;5036228;28;20658;-73
2020/12/21 06:54:44;;;;;;;7.88;5.50;;;6.90;99.90;;;;;;5036248;28;20277;-73
2020/12/21 06:57:10;;;;;;;16.38;8.05;;;6.80;99.90;;;;;;5036345;28;20658;-73
2020/12/21 06:59:37;;;;;;;10.95;7.45;;;6.90;99.90;;;;;;5036477;28;20200;-72
2020/12/21 07:02:03;;;;;;;11.00;7.13;;;7.00;99.90;;;;;;5036113;28;20295;-73
2020/12/21 07:04:32;;;;;;;9.40;6.05;;;7.00;99.90;;;;;;5035972;28;20311;-73
2020/12/21 07:07:01;;;;;;;14.20;7.75;;;7.00;99.90;;;;;;5035969;28;20208;-72
2020/12/21 07:09:29;;;;;;;11.07;6.47;;;6.90;99.90;;;;;;5035794;28;20212;-73
2020/12/21 07:11:58;;;;;;;10.45;5.70;;;6.80;99.90;;;;;;5034824;28;20215;-72
2020/12/21 07:14:25;;;;;;;8.32;5.20;;;6.70;99.90;;;;;;5035858;28;20365;-72
2020/12/21 07:17:02;;;;;;;13.02;6.25;;;6.60;99.90;;;;;;5035575;28;20230;-72
2020/12/21 07:19:29;;;;;;;9.95;5.68;;;6.50;99.90;;;;;;5036151;28;20294;-72
2020/12/21 07:21:56;;;;;;;10.85;6.15;;;6.50;99.90;;;;;;5036341;28;20346;-73
2020/12/21 07:24:23;;;;;;;8.45;5.68;;;6.50;99.90;;;;;;5035754;28;20403;-73
2020/12/21 07:26:49;;;;;;;13.45;7.15;;;6.60;99.90;;;;;;5035532;28;20215;-72
2020/12/21 07:29:17;;;;;;;13.15;7.80;;;6.50;99.90;;;;;;5035741;28;20298;-72
2020/12/21 07:31:43;;;;;;;13.93;8.18;;;6.40;99.90;;;;;;5035503;28;20751;-73
2020/12/21 07:34:10;;;;;;;14.18;7.93;;;6.40;99.90;;;;;;5034264;28;20228;-72
2020/12/21 07:36:38;;;;;;;15.05;8.88;;;6.30;99.90;;;;;;5035361;28;20299;-73
2020/12/21 07:39:08;;;;;;;14.95;9.00;;;6.30;99.90;;;;;;5035780;28;20203;-72
2020/12/21 07:41:37;;;;;;;15.82;8.48;;;6.40;99.90;;;;;;5035396;28;20580;-73
2020/12/21 07:44:07;;;;;;;14.43;8.65;;;6.50;99.90;;;;;;5035426;28;20594;-73
2020/12/21 07:46:40;;;;;;;15.35;8.60;;;6.50;99.90;;;;;;5035329;28;20188;-73
2020/12/21 07:49:09;;;;;;;15.80;8.57;;;6.70;99.90;;;;;;5035144;28;20747;-73
2020/12/21 07:51:37;;;;;;;14.85;7.63;;;6.80;99.90;;;;;;5035362;28;20204;-73
2020/12/21 07:54:04;;;;;;;11.50;7.50;;;6.90;99.90;;;;;;5035164;28;20310;-73
2020/12/21 07:56:31;;;;;;;11.68;7.00;;;7.00;99.90;;;;;;5034967;28;20200;-72
2020/12/21 07:58:57;;;;;;;9.63;6.63;;;7.00;99.90;;;;;;5034913;28;20204;-73
2020/12/21 08:01:24;;;;;;;10.65;6.00;;;7.00;99.90;;;;;;5035076;28;20211;-73
2020/12/21 08:03:53;;;;;;;9.80;6.13;;;7.00;99.90;;;;;;5034953;28;20298;-73
2020/12/21 08:06:23;;;;;;;10.63;6.40;;;6.80;99.90;;;;;;5034787;28;20208;-72
2020/12/21 08:08:50;;;;;;;15.27;8.35;;;6.70;99.90;;;;;;5034885;28;20708;-73
2020/12/21 08:11:18;;;;;;;13.23;7.90;;;6.60;99.90;;;;;;5034923;28;20204;-73
2020/12/21 08:13:48;;;;;;;12.27;8.20;;;6.60;99.90;;;;;;5034778;28;20211;-73
2020/12/21 08:16:15;;;;;;;11.02;7.57;;;6.60;99.90;;;;;;5034821;28;20261;-72
2020/12/21 08:18:45;;;;;;;11.23;6.95;;;6.60;99.90;;;;;;5034847;28;20207;-73
2020/12/21 08:21:15;;;;;;;10.15;7.22;;;6.60;99.90;;;;;;5034822;28;20204;-73
2020/12/21 08:23:41;;;;;;;12.98;9.35;;;6.60;99.90;;;;;;5034508;28;20212;-73
2020/12/21 08:26:14;;;;;;;14.68;8.45;;;6.80;99.90;;;;;;5034559;28;20204;-73
2020/12/21 08:28:40;;;;;;;14.80;9.10;;;6.70;99.90;;;;;;5033790;28;20220;-73
2020/12/21 08:31:12;;;;;;;14.07;9.07;;;6.70;99.90;;;;;;5034351;28;20216;-73
2020/12/21 08:33:44;;;;;;;16.02;9.38;;;6.60;99.90;;;;;;5034357;28;20749;-73
2020/12/21 08:36:33;;;;;;;11.63;8.20;;;6.60;99.90;;;;;;5034406;28;20184;-72
2020/12/21 08:39:20;;;;;;;13.60;8.35;;;6.80;99.90;;;;;;5030074;28;20540;-73
2020/12/21 08:41:48;;;;;;;13.27;7.95;;;6.90;99.90;;;;;;5029344;28;20200;-73
2020/12/21 08:44:19;;;;;;;13.57;8.82;;;7.00;99.90;;;;;;5034053;28;20227;-73
2020/12/21 08:46:45;;;;;;;10.85;7.80;;;7.10;99.90;;;;;;5034049;28;20610;-72
2020/12/21 08:49:12;;;;;;;16.63;9.35;;;7.20;99.90;;;;;;5033928;28;20736;-72
2020/12/21 08:51:39;;;;;;;13.52;8.85;;;7.10;99.90;;;;;;5033917;28;20215;-73
2020/12/21 08:54:05;;;;;;;12.27;8.63;;;7.10;99.90;;;;;;5034004;28;20728;-72
2020/12/21 08:56:32;;;;;;;14.90;8.88;;;7.10;99.90;;;;;;5033829;28;20212;-72
2020/12/21 08:58:58;;;;;;;14.90;9.50;;;7.10;99.90;;;;;;5033864;28;20292;-72
2020/12/21 09:01:24;;;;;;;15.88;8.60;;;7.10;99.90;;;;;;5033955;28;20261;-72
2020/12/21 09:03:51;;;;;;;11.75;8.05;;;7.20;99.90;;;;;;5033881;28;20311;-73
2020/12/21 09:06:18;;;;;;;13.05;8.90;;;7.40;99.90;;;;;;5033577;28;20291;-73
2020/12/21 09:08:45;;;;;;;14.90;8.60;;;7.50;99.90;;;;;;5033990;28;20228;-73
2020/12/21 09:11:12;;;;;;;13.30;7.90;;;7.60;99.90;;;;;;5033851;28;20200;-73
2020/12/21 09:13:41;;;;;;;14.32;9.80;;;7.60;99.90;;;;;;5033520;28;20294;-73
2020/12/21 09:16:08;;;;;;;12.82;7.93;;;7.50;99.90;;;;;;5033660;28;20208;-72
2020/12/21 09:18:34;;;;;;;14.60;8.32;;;7.60;99.90;;;;;;5033538;28;20200;-73
2020/12/21 09:21:01;;;;;;;12.57;8.43;;;7.60;99.90;;;;;;5033569;28;20211;-73
2020/12/21 09:23:27;;;;;;;13.15;8.30;;;7.60;99.90;;;;;;5033495;28;20208;-73
2020/12/21 09:25:54;;;;;;;13.45;8.75;;;7.60;99.90;;;;;;5033510;28;20318;-73
2020/12/21 09:28:20;;;;;;;14.65;8.80;;;7.70;99.90;;;;;;5033293;28;20311;-73
2020/12/21 09:30:47;;;;;;;12.55;8.52;;;7.80;99.90;;;;;;5033469;28;20273;-73
2020/12/21 09:33:13;;;;;;;13.65;9.25;;;7.90;99.90;;;;;;5033373;28;20298;-73
2020/12/21 09:35:39;;;;;;;12.65;8.52;;;8.00;99.90;;;;;;5033343;28;20315;-73
2020/12/21 09:38:06;;;;;;;16.25;8.63;;;8.10;99.90;;;;;;5033546;28;20200;-73
2020/12/21 09:40:32;;;;;;;12.65;8.82;;;8.00;99.90;;;;;;5036028;28;20300;-73
2020/12/21 09:42:59;;;;;;;12.68;8.80;;;7.90;99.90;;;;;;5037366;28;20566;-73
2020/12/21 09:45:25;;;;;;;15.15;8.40;;;7.80;99.90;;;;;;5037285;28;20224;-73
2020/12/21 09:47:53;;;;;;;12.45;7.15;;;7.70;99.90;;;;;;5037140;28;20310;-73
2020/12/21 09:50:19;;;;;;;15.40;8.48;;;7.70;99.90;;;;;;5037324;28;20254;-73
2020/12/21 09:52:45;;;;;;;15.07;8.60;;;7.80;99.90;;;;;;5037515;28;20210;-73
2020/12/21 09:55:13;;;;;;;12.13;8.38;;;8.00;99.90;;;;;;5037239;28;20377;-72
2020/12/21 09:57:40;;;;;;;16.98;8.57;;;8.10;99.90;;;;;;5037404;28;20226;-73
2020/12/21 10:00:07;;;;;;;17.40;9.48;;;8.20;99.90;;;;;;5037369;28;20295;-73
2020/12/21 10:02:33;;;;;;;10.85;7.72;;;8.30;99.90;;;;;;5037236;28;20298;-73
2020/12/21 10:04:59;;;;;;;12.20;7.88;;;8.40;99.90;;;;;;5036753;28;20724;-72
2020/12/21 10:07:26;;;;;;;14.20;8.00;;;8.40;99.90;;;;;;5037059;28;20211;-73
2020/12/21 10:09:52;;;;;;;13.75;8.85;;;8.30;99.90;;;;;;5037032;28;20208;-73
2020/12/21 10:12:18;;;;;;;11.07;7.90;;;8.30;99.90;;;;;;5037084;28;20295;-73
2020/12/21 10:14:45;;;;;;;16.73;9.13;;;8.20;99.90;;;;;;5036814;28;20228;-73
2020/12/21 10:17:12;;;;;;;19.90;9.57;;;8.20;99.90;;;;;;5037081;28;20259;-73
2020/12/21 10:19:39;;;;;;;12.88;9.32;;;8.20;99.90;;;;;;5036942;28;20200;-72
2020/12/21 10:22:05;;;;;;;12.68;8.18;;;8.10;99.90;;;;;;5036913;28;20725;-72
2020/12/21 10:24:31;;;;;;;14.25;9.35;;;8.20;99.90;;;;;;5036361;28;20702;-71
2020/12/21 10:26:57;;;;;;;17.05;9.25;;;8.10;99.90;;;;;;5036762;28;20418;-73
2020/12/21 10:29:24;;;;;;;14.90;9.40;;;8.00;99.90;;;;;;5036704;28;20704;-72
2020/12/21 10:31:50;;;;;;;17.05;9.65;;;8.00;99.90;;;;;;5036743;28;20220;-73
2020/12/21 10:34:17;;;;;;;12.88;7.60;;;8.20;99.90;;;;;;5036472;28;20227;-72
2020/12/21 10:36:48;;;;;;;15.80;9.15;;;8.20;99.90;;;;;;5036432;28;20299;-72
2020/12/21 10:39:15;;;;;;;15.32;9.50;;;8.30;99.90;;;;;;5036642;28;20200;-72
2020/12/21 10:41:41;;;;;;;15.20;9.27;;;8.20;99.90;;;;;;5036486;28;20257;-72
2020/12/21 10:44:07;;;;;;;16.70;8.95;;;8.20;99.90;;;;;;5036439;28;20310;-72
2020/12/21 10:46:34;;;;;;;17.23;9.70;;;8.30;99.90;;;;;;5036502;28;20215;-73
2020/12/21 10:49:00;;;;;;;12.73;8.52;;;8.40;99.90;;;;;;5036384;28;20242;-72
2020/12/21 10:51:28;;;;;;;15.85;9.20;;;8.50;99.90;;;;;;5035867;28;20210;-72
2020/12/21 10:53:55;;;;;;;12.27;8.25;;;8.70;99.90;;;;;;5035907;28;20207;-72
2020/12/21 10:56:21;;;;;;;13.98;8.90;;;8.70;99.90;;;;;;5035844;28;20200;-72
2020/12/21 10:58:47;;;;;;;15.93;9.55;;;8.80;99.90;;;;;;5036029;28;20675;-72
2020/12/21 11:01:15;;;;;;;16.58;9.40;;;8.80;99.90;;;;;;5036108;28;20291;-72
2020/12/21 11:03:41;;;;;;;16.77;8.27;;;8.90;99.90;;;;;;5036054;28;20212;-73
2020/12/21 11:06:08;;;;;;;13.00;8.77;;;8.80;99.90;;;;;;5035916;28;20737;-72
2020/12/21 11:08:35;;;;;;;13.73;9.13;;;8.70;99.90;;;;;;5035931;28;20315;-72
2020/12/21 11:11:01;;;;;;;13.23;9.07;;;8.80;99.90;;;;;;5035847;28;20226;-72
2020/12/21 11:13:28;;;;;;;13.80;9.48;;;9.00;99.90;;;;;;5035942;28;20624;-72
2020/12/21 11:15:54;;;;;;;13.57;9.10;;;9.00;99.90;;;;;;5035800;28;20230;-73
2020/12/21 11:18:21;;;;;;;15.80;8.60;;;9.20;99.90;;;;;;5036250;28;20291;-73
2020/12/21 11:20:47;;;;;;;12.40;7.80;;;9.20;99.90;;;;;;5035935;28;20296;-73
2020/12/21 11:23:13;;;;;;;13.55;8.75;;;9.10;99.90;;;;;;5035778;28;20300;-73
2020/12/21 11:25:41;;;;;;;14.27;8.05;;;9.10;99.90;;;;;;5035562;28;20691;-73
2020/12/21 11:28:08;;;;;;;15.95;9.30;;;9.00;99.90;;;;;;5036260;28;20224;-73
2020/12/21 11:30:34;;;;;;;13.95;8.40;;;9.00;99.90;;;;;;5035658;28;20219;-73
2020/12/21 11:33:01;;;;;;;12.88;8.30;;;9.10;99.90;;;;;;5035559;28;20215;-73
2020/12/21 11:35:27;;;;;;;14.18;8.82;;;8.90;99.90;;;;;;5035178;28;20789;-73
2020/12/21 11:37:54;;;;;;;17.38;9.00;;;8.80;99.90;;;;;;5035480;28;20291;-73
2020/12/21 11:40:20;;;;;;;12.63;8.15;;;8.80;99.90;;;;;;5035461;28;20226;-72
2020/12/21 11:42:48;;;;;;;14.60;8.50;;;8.80;99.90;;;;;;5035419;28;20208;-73
2020/12/21 11:45:14;;;;;;;12.50;8.90;;;8.90;99.90;;;;;;5035106;28;20321;-73
2020/12/21 11:47:40;;;;;;;12.43;7.60;;;8.90;99.90;;;;;;5035240;28;20224;-72
2020/12/21 11:50:07;;;;;;;11.80;8.15;;;9.00;99.90;;;;;;5035258;28;20296;-73
2020/12/21 11:52:33;;;;;;;9.90;7.82;;;9.10;99.90;;;;;;5035327;28;20567;-73
2020/12/21 11:55:00;;;;;;;14.05;8.23;;;9.10;99.90;;;;;;5035012;28;20383;-72
2020/12/21 11:57:27;;;;;;;13.43;8.10;;;9.20;99.90;;;;;;5035108;28;20753;-73
2020/12/21 11:59:55;;;;;;;10.48;7.30;;;9.30;99.90;;;;;;5035034;28;20725;-73
2020/12/21 12:02:22;;;;;;;14.55;8.50;;;9.20;99.90;;;;;;5034092;28;20689;-73
2020/12/21 12:04:49;;;;;;;11.60;7.95;;;9.30;99.90;;;;;;5034899;28;20228;-72
2020/12/21 12:07:15;;;;;;;10.35;7.85;;;9.30;99.90;;;;;;5035222;28;20253;-73
2020/12/21 12:09:42;;;;;;;12.20;8.75;;;9.30;99.90;;;;;;5034761;28;20648;-73
2020/12/21 12:12:08;;;;;;;15.30;8.93;;;9.30;99.90;;;;;;5034875;28;20236;-73
2020/12/21 12:14:35;;;;;;;13.68;7.53;;;9.30;99.90;;;;;;5034503;28;20250;-72
2020/12/21 12:17:03;;;;;;;11.18;6.50;;;9.30;99.90;;;;;;5034737;28;20610;-73
2020/12/21 12:19:29;;;;;;;8.13;3.70;;;9.30;99.90;;;;;;5034715;28;20563;-73
2020/12/21 12:21:56;;;;;;;4.38;2.55;;;9.30;99.90;;;;;;5034569;28;20295;-73
2020/12/21 12:24:23;;;;;;;4.40;2.33;;;9.40;99.90;;;;;;5034316;28;20238;-73
2020/12/21 12:26:51;;;;;;;2.10;1.95;;;9.50;99.90;;;;;;5034459;28;20804;-72
2020/12/21 12:29:17;;;;;;;2.65;1.90;;;9.70;99.90;;;;;;5034424;28;20311;-72
2020/12/21 12:31:44;;;;;;;3.97;2.35;;;9.70;99.90;;;;;;5034357;28;20307;-72
2020/12/21 12:34:11;;;;;;;3.22;2.03;;;9.70;99.90;;;;;;5034593;28;20649;-72
2020/12/21 12:36:39;;;;;;;3.22;2.10;;;9.80;99.90;;;;;;5034191;28;20204;-72
2020/12/21 12:39:05;;;;;;;3.15;2.25;;;9.90;99.90;;;;;;5034338;28;20204;-73
2020/12/21 12:41:36;;;;;;;4.80;2.78;;;9.90;99.90;;;;;;5034363;28;20206;-72
2020/12/21 12:44:03;;;;;;;2.95;2.30;;;10.00;99.90;;;;;;5034207;28;20234;-72
2020/12/21 12:46:29;;;;;;;6.05;2.45;;;10.10;99.90;;;;;;5033971;28;20214;-72
2020/12/21 12:48:56;;;;;;;3.00;2.70;;;10.20;99.90;;;;;;5034050;28;20274;-72